AirNav   Air Wisconsin Up To $57,000 Bonus
 
 474 users online  

04CL Desert Wings Sky Ranch Airport
Julian, California, USA

GOING TO JULIAN?


FAA INFORMATION EFFECTIVE 15 JULY 2021

Location

FAA Identifier: 04CL
Lat/Long: 33-04-54.1590N 116-26-29.0560W
33-04.902650N 116-26.484267W
33.0817108,-116.4414044
(estimated)
Elevation: 2310 ft. / 704 m (estimated)
Variation: 13E (1985)
From city: 9 miles E of JULIAN, CA
Time zone: UTC -7 (UTC -8 during Standard Time)
Zip code: 92036

Airport Operations

Airport use: Private use. Permission required prior to landing
Activation date: 03/1963
Control tower: no
ARTCC: LOS ANGELES CENTER
FSS: SAN DIEGO FLIGHT SERVICE STATION
Attendance: CONTINUOUS
Wind indicator: yes, WIND SOCK INSTALLED ON NORTH SIDE OF RWY.
Segmented circle: yes

Airport Communications

UNICOM: 122.8
WX AWOS-3P at L08 (12 nm NE): 126.575 (760-767-3308)

Nearby radio navigation aids

VOR radial/distance  VOR name  Freq  Var
JLIr101/8.1JULIAN VORTAC114.0015E
TRMr190/35.7THERMAL VORTAC116.2013E
PGYr030/39.2POGGI VORTAC116.4514E

Airport Services

Airframe service: NONE
Powerplant service: NONE

Runway Information

Runway 8/26

Dimensions: 1900 x 100 ft. / 579 x 30 m
Surface: gravel/dirt
RUNWAY 8  RUNWAY 26
Traffic pattern: leftleft
Displaced threshold: no600 ft.
Obstructions: none50 ft. pline, 50 ft. from runway
UNMKD/UNLGTD APRXLY 50' HIGH PLINE RUNS N & S 50' EAST OF E END OF RY.

Airport Ownership and Management from official FAA records

Ownership: Privately-owned
Owner: SUSAN BOYER
424 KELLY AVE
HALF MOON BAY, CA 94019
Phone (650) 554-0922
Manager: SUSAN BOYER
424 KELLY AVE
HALF MOON BAY, CA 94019
Phone (650) 554-0922

Additional Remarks

A30-E EAST END RWY CLOSED BECAUSE OF PLINE.
FOR CD CTC LOS ANGELES ARTCC AT 661-575-2079.

Instrument Procedures

There are no published instrument procedures at 04CL.

Some nearby airports with instrument procedures:

L08 - Borrego Valley Airport (12 nm NE)
KRNM - Ramona Airport (24 nm W)
KSEE - Gillespie Field Airport (31 nm SW)
KTRM - Jacqueline Cochran Regional Airport (36 nm NE)
KNKX - Miramar MCAS (Joe Foss Field) Airport (38 nm W)
 
Loc | Ops | Rwys | IFR | FBO | Links
Com | Nav | Svcs | Stats | Notes
Area around 04CL (Desert Wings Sky Ranch Airport)
 
Road maps at: MapQuest Bing Google
 
Aerial photo
No photo
 
Sectional chart

 
Airport distance calculator
Flying to Desert Wings Sky Ranch Airport? Find the distance to fly.

From to 04CL

Sunrise and sunset
Times for 03-Aug-2021
 Local
(UTC-7)
 Zulu
(UTC)
Morning civil twilight05:3512:35
Sunrise06:0113:01
Sunset19:4202:42
Evening civil twilight20:0903:09

Current date and time
Zulu (UTC)  03-Aug-2021 09:14:14
Local (UTC-7)  03-Aug-2021 02:14:14
 
METAR
KL08 
12nm NE 
030855Z AUTO 32007KT 10SM CLR 28/M02 A2985 RMK AO2
KRNM 
24nm W 
030853Z AUTO 00000KT 10SM CLR 16/07 A3000 RMK AO2 SLP139 T01610067 58007
TAF
KTRM 
36nm NE 
030520Z 0306/0406 34010KT P6SM SKC FM031100 VRB04KT P6SM SKC FM032000 13008KT P6SM SKC FM040000 VRB05KT P6SM SKC FM040400 33010KT P6SM SKC
KNKX 
37nm W 
0303/0403 30008KT 9999 SKC QNH2995INS BECMG 0303/0305 VRB05KT 9999 SKC QNH2992INS BECMG 0317/0319 29009KT 9999 SKC QNH2989INS T16/0313Z T30/0321Z
KNJK 
42nm E 
0307/0407 VRB06KT 9999 SKC QNH2972INS FM040300 19010KT 9999 SKC QNH2977INS AUTOMATED SENSOR METWATCH 0307 TIL 0313 T26/0312Z T46/0323Z FS30171
MMTJ 
42nm SW 
030250Z 0306/0412 28005KT P6SM SKC TX31/0320Z TN17/0312Z TEMPO 0312/0316 6SM HZ BKN012 FM031800 30012KT P6SM SCT250 FM040600 30005KT P6SM 6SM HZ SKC
KCRQ 
42nm W 
030520Z 0306/0406 VRB03KT P6SM SKC FM031100 VRB04KT P6SM VCFG SCT003 FM031500 VRB04KT P6SM SKC FM031900 26008KT P6SM SKC FM040200 VRB05KT P6SM SKC
KSAN 
43nm SW 
030520Z 0306/0412 VRB05KT P6SM SKC FM031200 VRB04KT P6SM VCFG SCT005 FM031600 VRB04KT P6SM SKC FM031800 30012KT P6SM SKC FM040300 31005KT P6SM SKC FM041100 VRB03KT P6SM SCT005
KPSP 
44nm N 
030520Z 0306/0406 VRB04KT P6SM SKC FM040000 32010G18KT P6SM SKC
NOTAMs
Click for the latest NOTAMs
NOTAMs are issued by the DoD/FAA and will open in a separate window not controlled by AirNav.

 

 
 

Would you like to see your business listed on this page?

 If your business provides an interesting product or service to pilots, flight crews, aircraft, or users of the Desert Wings Sky Ranch Airport, you should consider listing it here.  To start the listing process, click on the button below
 
Add a business
 

Other Pages about Desert Wings Sky Ranch Airport

Update a link
 
Copyright © AirNav, LLC. All rights reserved. Privacy Policy  Contact